Time;durP1;ratioP1;P1;durP2;ratioP2;P2;SDS_P1;SDS_P2;PMS_P1;PMS_P2;Temp;Humidity;BMP_temperature;BMP_pressure;BME280_temperature;BME280_humidity;BME280_pressure;Samples;Min_cycle;Max_cycle;Signal;HPM_P1;HPM_P2
2023/04/14 00:00:43;;;;;;;9.40;4.97;;;;;;;4.01;78.02;100746.78;5126439;27;20039;-70
2023/04/14 00:03:10;;;;;;;17.20;5.28;;;;;;;3.98;78.27;100744.19;5123619;27;20089;-70
2023/04/14 00:05:38;;;;;;;10.85;5.00;;;;;;;3.96;78.58;100745.91;5136828;27;20089;-70
2023/04/14 00:08:05;;;;;;;10.38;4.65;;;;;;;3.94;78.72;100747.66;5130621;27;20036;-70
2023/04/14 00:10:32;;;;;;;13.25;5.10;;;;;;;3.89;79.18;100739.88;5130246;27;20043;-70
2023/04/14 00:13:00;;;;;;;11.00;4.85;;;;;;;3.85;79.45;100737.28;5138836;27;20036;-70
2023/04/14 00:15:28;;;;;;;10.45;5.07;;;;;;;3.78;79.51;100743.41;5116824;27;20527;-70
2023/04/14 00:17:55;;;;;;;10.70;4.75;;;;;;;3.71;79.50;100752.97;5137537;27;20528;-70
2023/04/14 00:20:22;;;;;;;13.10;4.53;;;;;;;3.59;79.74;100761.72;5129657;27;20688;-73
2023/04/14 00:22:49;;;;;;;8.48;4.35;;;;;;;3.49;79.95;100755.66;5115986;27;20559;-69
2023/04/14 00:25:16;;;;;;;11.93;4.35;;;;;;;3.39;80.24;100767.84;5136247;27;21017;-70
2023/04/14 00:27:43;;;;;;;9.60;4.38;;;;;;;3.30;80.31;100773.06;5144565;27;20042;-70
2023/04/14 00:30:11;;;;;;;10.30;4.40;;;;;;;3.24;80.40;100778.28;5142407;27;20039;-70
2023/04/14 00:32:38;;;;;;;8.15;4.63;;;;;;;3.16;80.60;100772.19;5121856;27;20035;-69
2023/04/14 00:35:05;;;;;;;8.10;4.45;;;;;;;3.10;80.85;100773.06;5129817;27;20043;-69
2023/04/14 00:37:33;;;;;;;10.68;4.32;;;;;;;3.08;81.22;100777.41;5128233;27;20043;-69
2023/04/14 00:40:00;;;;;;;10.60;4.40;;;;;;;3.04;81.62;100773.94;5121234;27;20083;-69
2023/04/14 00:42:27;;;;;;;8.82;4.18;;;;;;;3.00;81.61;100766.13;5141715;27;20046;-69
2023/04/14 00:44:54;;;;;;;11.00;4.65;;;;;;;2.98;81.35;100779.16;5109398;27;20066;-70
2023/04/14 00:47:24;;;;;;;10.20;4.43;;;;;;;2.96;81.20;100775.69;5120540;27;20489;-70
2023/04/14 00:49:51;;;;;;;8.75;4.15;;;;;;;2.92;80.96;100777.44;5119631;27;20039;-70
2023/04/14 00:52:22;;;;;;;11.40;4.55;;;;;;;2.89;81.21;100780.03;5138858;27;20637;-70
2023/04/14 00:54:49;;;;;;;14.20;5.20;;;;;;;2.86;81.19;100777.41;5119073;27;20499;-70
2023/04/14 00:57:17;;;;;;;13.75;4.78;;;;;;;2.83;81.35;100776.53;5114506;27;21000;-71
2023/04/14 00:59:44;;;;;;;10.82;4.60;;;;;;;2.79;81.46;100778.28;5136134;27;20032;-70
2023/04/14 01:02:11;;;;;;;12.32;4.97;;;;;;;2.76;81.73;100784.34;5141121;27;20047;-70
2023/04/14 01:04:39;;;;;;;17.80;4.30;;;;;;;2.73;81.84;100791.31;5138705;27;20159;-70
2023/04/14 01:07:23;;;;;;;8.38;4.40;;;;;;;2.67;81.75;100796.47;5120889;27;20801;-70
2023/04/14 01:09:53;;;;;;;8.05;3.85;;;;;;;2.62;81.75;100791.28;5135816;27;20493;-70
2023/04/14 01:12:59;;;;;;;10.25;4.47;;;;;;;2.55;81.73;100795.59;5129875;27;20043;-71
2023/04/14 01:15:58;;;;;;;9.70;4.40;;;;;;;2.51;81.82;100795.56;5144067;27;20431;-71
2023/04/14 01:18:59;;;;;;;11.50;4.75;;;;;;;2.48;81.83;100792.13;5132967;27;20094;-71
2023/04/14 01:21:34;;;;;;;10.10;4.82;;;;;;;2.44;81.79;100792.97;5140511;27;20043;-71
2023/04/14 01:24:35;;;;;;;7.15;4.25;;;;;;;2.44;81.83;100794.72;5120828;27;20118;-71
2023/04/14 01:27:58;;;;;;;11.85;5.05;;;;;;;2.39;81.83;100797.28;5124170;27;20043;-71
2023/04/14 01:30:58;;;;;;;12.05;4.90;;;;;;;2.36;81.98;100794.69;5095945;27;20664;-70
2023/04/14 01:33:29;;;;;;;9.15;4.65;;;;;;;2.31;82.42;100793.78;5116147;27;20047;-70
2023/04/14 01:36:07;;;;;;;10.77;4.78;;;;;;;2.28;82.40;100799.00;5141714;27;20110;-70
2023/04/14 01:38:38;;;;;;;12.55;5.28;;;;;;;2.24;82.67;100799.84;5111331;27;20453;-70
2023/04/14 01:41:11;;;;;;;12.95;4.55;;;;;;;2.19;82.71;100805.03;5120600;27;20032;-70
2023/04/14 01:43:45;;;;;;;8.63;4.38;;;;;;;2.13;82.72;100803.28;5113484;27;20047;-71
2023/04/14 01:46:17;;;;;;;12.77;5.00;;;;;;;2.10;82.56;100803.25;5123326;27;20506;-71
2023/04/14 01:48:45;;;;;;;9.13;4.32;;;;;;;2.06;82.69;100804.13;5119702;27;20046;-71
2023/04/14 01:51:17;;;;;;;10.38;4.65;;;;;;;2.03;82.69;100804.09;5111789;27;20041;-71
2023/04/14 01:53:49;;;;;;;7.95;4.43;;;;;;;1.99;82.91;100800.63;5121809;27;20721;-70
2023/04/14 01:56:18;;;;;;;11.10;4.05;;;;;;;2.01;82.90;100808.44;5127784;27;20111;-70
2023/04/14 01:58:48;;;;;;;11.88;4.88;;;;;;;2.00;82.67;100804.09;5108448;27;20048;-71
2023/04/14 02:01:16;;;;;;;9.43;4.45;;;;;;;1.97;82.80;100807.56;5098985;27;20727;-70
2023/04/14 02:03:47;;;;;;;14.52;4.40;;;;;;;1.97;82.82;100809.28;5116352;27;20097;-70
2023/04/14 02:06:18;;;;;;;7.80;4.40;;;;;;;1.96;82.81;100807.56;5118912;27;20081;-71
2023/04/14 02:08:47;;;;;;;14.70;4.57;;;;;;;1.94;82.87;100804.06;5120306;27;20570;-71
2023/04/14 02:11:17;;;;;;;11.13;4.40;;;;;;;1.94;83.01;100814.47;5116738;27;20503;-71
2023/04/14 02:13:47;;;;;;;8.00;4.32;;;;;;;1.92;82.99;100808.38;5110385;27;20040;-71
2023/04/14 02:16:17;;;;;;;11.30;4.47;;;;;;;1.90;82.87;100813.59;5121365;27;20039;-71
2023/04/14 02:18:48;;;;;;;10.65;4.38;;;;;;;1.91;83.05;100822.25;5099945;27;20530;-71
2023/04/14 02:21:17;;;;;;;10.10;4.10;;;;;;;1.88;83.05;100820.50;5115791;27;20040;-71
2023/04/14 02:23:44;;;;;;;9.75;4.40;;;;;;;1.89;83.06;100836.97;5119433;27;20044;-70
2023/04/14 02:26:21;;;;;;;13.60;4.30;;;;;;;1.86;83.27;100832.63;5111110;27;20032;-71
2023/04/14 02:29:01;;;;;;;12.00;4.40;;;;;;;1.85;83.25;100836.97;5108815;27;20093;-71
2023/04/14 02:31:32;;;;;;;11.48;4.25;;;;;;;1.84;83.18;100826.53;5113049;27;20051;-71
2023/04/14 02:34:02;;;;;;;9.70;4.20;;;;;;;1.84;83.19;100834.34;5094077;27;20544;-71
2023/04/14 02:36:36;;;;;;;8.00;4.35;;;;;;;1.81;83.19;100827.41;5129336;27;20051;-71
2023/04/14 02:39:13;;;;;;;7.65;4.45;;;;;;;1.81;83.34;100831.75;5121504;27;20489;-71
2023/04/14 02:41:44;;;;;;;10.77;4.30;;;;;;;1.81;83.33;100830.00;5104232;27;20082;-71
2023/04/14 02:44:25;;;;;;;8.15;4.53;;;;;;;1.81;83.48;100834.34;5145578;27;20132;-70
2023/04/14 02:47:28;;;;;;;8.65;4.30;;;;;;;1.79;83.44;100831.72;5120169;27;20039;-70
2023/04/14 02:50:02;;;;;;;8.27;4.40;;;;;;;1.77;83.35;100832.56;5122899;27;20059;-70
2023/04/14 02:52:33;;;;;;;11.23;5.03;;;;;;;1.74;83.17;100827.34;5126474;27;20039;-71
2023/04/14 02:55:04;;;;;;;15.07;4.90;;;;;;;1.74;83.66;100830.84;5125783;27;20043;-70
2023/04/14 02:57:32;;;;;;;12.23;4.53;;;;;;;1.75;84.16;100829.97;5117918;27;20505;-70
2023/04/14 03:00:00;;;;;;;11.00;4.90;;;;;;;1.75;84.65;100839.50;5111913;27;20048;-69
2023/04/14 03:02:31;;;;;;;8.32;4.57;;;;;;;1.70;nan;100837.75;5111921;27;20036;-69
2023/04/14 03:05:07;;;;;;;12.57;4.57;;;;;;;1.62;84.76;100833.34;5118260;27;20147;-68
2023/04/14 03:07:43;;;;;;;8.38;4.18;;;;;;;1.55;84.76;100840.22;5109311;27;20081;-68
2023/04/14 03:10:14;;;;;;;13.07;4.55;;;;;;;1.49;84.74;100832.41;5117879;27;20087;-68
2023/04/14 03:12:45;;;;;;;11.10;4.38;;;;;;;1.45;84.96;100828.03;5129780;27;20514;-69
2023/04/14 03:15:15;;;;;;;13.23;5.10;;;;;;;1.40;84.94;100828.00;5122093;27;20040;-69
2023/04/14 03:17:47;;;;;;;9.85;4.88;;;;;;;1.35;84.87;100825.38;5128476;27;20040;-69
2023/04/14 03:20:18;;;;;;;12.40;5.00;;;;;;;1.35;84.91;100821.91;5119016;27;20086;-68
2023/04/14 03:22:56;;;;;;;8.43;4.40;;;;;;;1.30;84.78;100828.78;5106908;27;20051;-69
2023/04/14 03:25:28;;;;;;;13.05;4.85;;;;;;;1.32;84.79;100834.88;5122958;27;20035;-68
2023/04/14 03:28:01;;;;;;;12.48;4.97;;;;;;;1.32;84.84;100833.16;5127879;27;20031;-68
2023/04/14 03:30:32;;;;;;;8.45;4.35;;;;;;;1.31;84.86;100833.13;5108747;28;20074;-70
2023/04/14 03:33:10;;;;;;;10.73;4.95;;;;;;;1.30;85.01;100839.19;5119844;27;20048;-69
2023/04/14 03:35:39;;;;;;;8.68;4.57;;;;;;;1.27;84.60;100840.03;5125447;27;20515;-69
2023/04/14 03:38:09;;;;;;;8.02;4.30;;;;;;;1.28;84.93;100846.09;5119884;27;20126;-69
2023/04/14 03:40:43;;;;;;;7.90;4.85;;;;;;;1.27;84.99;100840.03;5122383;27;20048;-69
2023/04/14 03:43:18;;;;;;;9.68;4.97;;;;;;;1.24;85.07;100840.88;5109001;27;20541;-69
2023/04/14 03:45:48;;;;;;;12.63;5.00;;;;;;;1.23;85.20;100836.53;5114801;27;20505;-69
2023/04/14 03:48:19;;;;;;;11.05;4.95;;;;;;;1.20;85.47;100838.25;5098459;27;20093;-69
2023/04/14 03:50:52;;;;;;;11.85;4.70;;;;;;;1.18;85.57;100843.41;5122679;27;20039;-69
2023/04/14 03:53:20;;;;;;;9.80;4.88;;;;;;;1.15;85.70;100840.81;5107706;27;20797;-69
2023/04/14 03:55:51;;;;;;;11.95;5.35;;;;;;;1.12;85.45;100845.97;5124177;27;20046;-70
2023/04/14 03:58:20;;;;;;;9.82;4.38;;;;;;;1.10;85.34;100846.81;5122537;27;20038;-70
2023/04/14 04:00:52;;;;;;;11.13;4.60;;;;;;;1.07;85.46;100847.63;5107120;27;20159;-70
2023/04/14 04:03:22;;;;;;;7.50;4.40;;;;;;;1.04;85.33;100845.03;5125484;27;20126;-69
2023/04/14 04:05:50;;;;;;;7.65;4.40;;;;;;;1.02;85.51;100854.53;5122876;27;20040;-70
2023/04/14 04:08:21;;;;;;;8.85;3.88;;;;;;;1.00;85.57;100857.13;5126719;27;20047;-70
2023/04/14 04:10:50;;;;;;;8.73;4.28;;;;;;;0.97;85.33;100853.63;5109129;27;20093;-70
2023/04/14 04:13:20;;;;;;;8.40;4.30;;;;;;;0.96;85.37;100859.69;5124775;27;20109;-70
2023/04/14 04:15:52;;;;;;;11.68;4.88;;;;;;;0.96;85.43;100863.13;5115379;27;20055;-70
2023/04/14 04:18:24;;;;;;;10.95;5.05;;;;;;;0.93;85.82;100858.78;5116637;27;20089;-69
2023/04/14 04:20:53;;;;;;;8.15;4.35;;;;;;;0.93;85.66;100863.09;5112098;27;20087;-69
2023/04/14 04:23:23;;;;;;;8.95;4.90;;;;;;;0.92;85.69;100867.44;5127238;27;20593;-69
2023/04/14 04:25:52;;;;;;;8.73;5.20;;;;;;;0.91;85.79;100867.44;5124557;27;20040;-69
2023/04/14 04:28:26;;;;;;;8.73;4.45;;;;;;;0.91;85.79;100867.44;5109309;27;20044;-70
2023/04/14 04:30:57;;;;;;;12.38;5.30;;;;;;;0.90;85.84;100863.94;5116892;27;20055;-70
2023/04/14 04:33:29;;;;;;;13.18;5.80;;;;;;;0.88;85.84;100867.38;5132139;27;20046;-71
2023/04/14 04:36:00;;;;;;;10.70;5.28;;;;;;;0.83;86.25;100864.75;5111936;27;20032;-72
2023/04/14 04:38:33;;;;;;;10.95;5.30;;;;;;;0.81;86.55;100874.22;5123456;27;20036;-69
2023/04/14 04:41:00;;;;;;;13.15;5.68;;;;;;;0.76;86.76;100871.59;5120122;27;20164;-69
2023/04/14 04:43:29;;;;;;;12.98;5.18;;;;;;;0.76;86.73;100870.72;5126715;27;20074;-69
2023/04/14 04:45:56;;;;;;;10.88;5.45;;;;;;;0.83;88.00;100867.34;5135588;27;20043;-69
2023/04/14 04:48:27;;;;;;;12.23;5.70;;;;;;;0.87;87.97;100863.91;5116026;27;20551;-67
2023/04/14 04:50:55;;;;;;;12.65;5.40;;;;;;;0.88;87.68;100864.78;5133525;27;20431;-68
2023/04/14 04:53:22;;;;;;;12.02;5.38;;;;;;;0.87;87.60;100863.91;5129301;27;20544;-68
2023/04/14 04:55:49;;;;;;;11.57;4.72;;;;;;;0.88;87.35;100857.00;5110776;27;20035;-71
2023/04/14 04:58:16;;;;;;;10.95;4.50;;;;;;;0.89;87.17;100858.75;5121160;27;20036;-69
2023/04/14 05:00:43;;;;;;;14.45;5.25;;;;;;;0.99;87.90;100851.91;5127427;27;20532;-68
2023/04/14 05:03:10;;;;;;;10.10;4.82;;;;;;;1.16;88.39;100862.44;5116961;27;20047;-69
2023/04/14 05:05:37;;;;;;;8.30;4.57;;;;;;;1.32;87.41;100863.44;5113264;27;20500;-69
2023/04/14 05:08:05;;;;;;;8.88;4.57;;;;;;;1.91;86.15;100866.44;5119326;27;20036;-68
2023/04/14 05:10:35;;;;;;;12.15;4.82;;;;;;;2.69;84.05;100860.72;5119829;27;20061;-68
2023/04/14 05:13:02;;;;;;;8.70;4.10;;;;;;;3.48;82.39;100863.38;5110950;27;20054;-68
2023/04/14 05:15:30;;;;;;;11.38;4.50;;;;;;;4.33;80.22;100859.72;5120787;27;20036;-68
2023/04/14 05:17:58;;;;;;;14.18;3.90;;;;;;;5.18;78.16;100853.97;5104942;27;20044;-68
2023/04/14 05:20:25;;;;;;;9.65;3.85;;;;;;;6.01;75.60;100848.88;5108000;27;20060;-68
2023/04/14 05:22:52;;;;;;;8.02;3.28;;;;;;;6.87;72.75;100856.53;5122957;27;20046;-68
2023/04/14 05:25:21;;;;;;;8.40;3.20;;;;;;;7.70;69.95;100847.28;5124791;27;20041;-68
2023/04/14 05:27:49;;;;;;;7.43;2.75;;;;;;;8.46;67.21;100853.66;5125316;27;20034;-68
2023/04/14 05:30:16;;;;;;;9.02;2.65;;;;;;;9.13;64.54;100844.31;5124184;27;20039;-69
2023/04/14 05:32:43;;;;;;;8.23;2.50;;;;;;;9.08;63.01;100851.47;5107852;27;20504;-68
2023/04/14 05:35:10;;;;;;;9.82;3.10;;;;;;;7.93;64.93;100853.88;5124644;27;20044;-69
2023/04/14 05:37:37;;;;;;;16.15;3.03;;;;;;;6.99;66.94;100858.94;5128310;27;20052;-70
2023/04/14 05:40:05;;;;;;;14.00;3.55;;;;;;;6.24;69.28;100864.31;5114940;27;20035;-68
2023/04/14 05:42:32;;;;;;;9.90;3.95;;;;;;;5.65;70.88;100867.53;5127922;27;20042;-69
2023/04/14 05:44:59;;;;;;;7.88;4.00;;;;;;;5.11;72.22;100865.38;5145135;27;20039;-69
2023/04/14 05:47:27;;;;;;;12.40;4.28;;;;;;;4.73;73.54;100867.34;5144848;27;20378;-69
2023/04/14 05:49:54;;;;;;;9.07;4.47;;;;;;;4.49;74.67;100863.13;5137464;27;20118;-69
2023/04/14 05:52:21;;;;;;;13.30;4.60;;;;;;;4.35;75.54;100868.41;5135258;27;20736;-69
2023/04/14 05:54:48;;;;;;;8.93;4.53;;;;;;;4.28;76.38;100866.69;5135596;27;20043;-69
2023/04/14 05:57:15;;;;;;;13.65;4.43;;;;;;;4.22;76.75;100862.38;5142741;27;20515;-69
2023/04/14 05:59:42;;;;;;;17.77;4.70;;;;;;;4.20;77.49;100862.38;5138118;27;20206;-70
2023/04/14 06:02:09;;;;;;;12.63;4.28;;;;;;;4.23;77.87;100861.47;5147228;27;20027;-69
2023/04/14 06:04:36;;;;;;;16.27;4.63;;;;;;;4.26;78.18;100856.25;5105437;27;20614;-69
2023/04/14 06:07:03;;;;;;;11.35;4.40;;;;;;;4.27;78.68;100857.13;5139544;27;20035;-69
2023/04/14 06:09:30;;;;;;;10.93;4.07;;;;;;;4.29;78.93;100856.25;5139540;27;20537;-69
2023/04/14 06:11:57;;;;;;;10.70;3.95;;;;;;;4.35;79.09;100858.81;5148109;27;20478;-69
2023/04/14 06:14:24;;;;;;;7.65;3.83;;;;;;;4.43;79.37;100857.91;5120911;27;20085;-69
2023/04/14 06:16:51;;;;;;;7.53;4.20;;;;;;;4.52;79.54;100863.13;5131314;27;20973;-69
2023/04/14 06:19:18;;;;;;;7.78;4.05;;;;;;;4.63;79.60;100855.22;5142028;27;20490;-69
2023/04/14 06:21:46;;;;;;;10.40;4.22;;;;;;;4.72;79.85;100862.16;5128718;27;20518;-69
2023/04/14 06:24:13;;;;;;;15.13;4.63;;;;;;;4.84;79.98;100862.03;5129238;27;20157;-69
2023/04/14 06:26:40;;;;;;;12.05;3.90;;;;;;;4.95;80.13;100848.94;5129896;27;20542;-69
2023/04/14 06:29:08;;;;;;;12.57;4.43;;;;;;;5.08;80.34;100852.31;5149289;27;20031;-69
2023/04/14 06:31:35;;;;;;;8.88;4.22;;;;;;;5.20;80.95;100854.84;5146530;27;20047;-69
2023/04/14 06:34:02;;;;;;;12.23;3.88;;;;;;;5.29;81.30;100866.97;5139012;27;20046;-69
2023/04/14 06:36:30;;;;;;;11.48;5.00;;;;;;;5.39;81.40;100867.75;5148245;27;20475;-69
2023/04/14 06:38:57;;;;;;;11.48;4.45;;;;;;;5.50;80.99;100857.19;5128853;27;20895;-69
2023/04/14 06:41:25;;;;;;;13.00;4.68;;;;;;;5.62;81.28;100864.94;5126921;27;20040;-68
2023/04/14 06:43:52;;;;;;;14.88;4.93;;;;;;;5.73;81.23;100854.38;5110660;27;20167;-68
2023/04/14 06:46:19;;;;;;;11.50;4.50;;;;;;;5.86;81.06;100855.13;5130146;27;20043;-68
2023/04/14 06:48:46;;;;;;;9.27;4.50;;;;;;;5.99;80.87;100856.75;5129076;27;20550;-68
2023/04/14 06:51:13;;;;;;;11.52;4.22;;;;;;;6.11;80.77;100863.59;5129990;27;20042;-68
2023/04/14 06:53:40;;;;;;;9.73;4.20;;;;;;;6.21;80.70;100851.25;5128415;27;20213;-68
2023/04/14 06:56:07;;;;;;;9.30;4.03;;;;;;;6.35;80.40;100857.19;5148318;27;20066;-67
2023/04/14 06:58:34;;;;;;;11.75;4.18;;;;;;;6.46;80.06;100856.19;5128098;27;20050;-68
2023/04/14 07:01:02;;;;;;;12.63;4.65;;;;;;;6.58;79.80;100847.31;5128941;27;20115;-68
2023/04/14 07:03:30;;;;;;;11.45;3.95;;;;;;;6.69;79.46;100848.03;5128870;27;20084;-68
2023/04/14 07:06:10;;;;;;;10.15;4.30;;;;;;;6.78;78.80;100853.13;5129757;27;20040;-68
2023/04/14 07:08:39;;;;;;;10.50;4.45;;;;;;;6.84;78.96;100847.81;5149132;27;20035;-68
2023/04/14 07:11:09;;;;;;;12.52;4.57;;;;;;;6.96;79.26;100843.28;5130352;27;20043;-68
2023/04/14 07:13:38;;;;;;;10.50;4.15;;;;;;;7.10;79.00;100848.31;5148028;27;20053;-67
2023/04/14 07:16:06;;;;;;;9.57;4.25;;;;;;;7.23;78.67;100846.34;5111190;27;20051;-68
2023/04/14 07:18:34;;;;;;;10.65;4.32;;;;;;;7.32;78.55;100840.09;5108183;27;20040;-68
2023/04/14 07:21:01;;;;;;;8.68;3.78;;;;;;;7.43;78.37;100827.63;5111687;27;20042;-69
2023/04/14 07:23:29;;;;;;;12.52;4.00;;;;;;;7.56;78.36;100839.66;5142532;27;20522;-69
2023/04/14 07:25:58;;;;;;;12.43;4.45;;;;;;;7.72;78.11;100842.88;5151857;27;20046;-69
2023/04/14 07:28:27;;;;;;;14.10;4.43;;;;;;;7.87;77.99;100844.34;5150284;27;20050;-69
2023/04/14 07:30:54;;;;;;;10.23;4.32;;;;;;;8.01;77.49;100838.81;5130684;27;20099;-69
2023/04/14 07:33:21;;;;;;;10.82;3.78;;;;;;;8.14;77.19;100834.19;5130463;27;20157;-68
2023/04/14 07:35:50;;;;;;;13.88;4.32;;;;;;;8.30;76.54;100833.88;5130354;27;20040;-68
2023/04/14 07:38:31;;;;;;;13.98;4.00;;;;;;;8.42;75.89;100830.13;5129709;27;20047;-69
2023/04/14 07:41:02;;;;;;;16.58;4.00;;;;;;;8.53;75.89;100829.03;5134278;27;20134;-68
2023/04/14 07:43:36;;;;;;;10.90;3.42;;;;;;;8.68;75.49;100814.69;5133891;27;20989;-68
2023/04/14 07:46:05;;;;;;;7.27;3.23;;;;;;;8.80;75.28;100816.16;5141095;27;20042;-68
2023/04/14 07:48:37;;;;;;;9.10;3.60;;;;;;;8.93;75.10;100815.88;5111392;27;20097;-68
2023/04/14 07:51:05;;;;;;;9.23;3.13;;;;;;;9.05;74.76;100815.59;5129821;27;20123;-68
2023/04/14 07:53:33;;;;;;;9.65;3.58;;;;;;;9.19;74.67;100812.63;5113784;27;20069;-68
2023/04/14 07:56:01;;;;;;;9.23;3.50;;;;;;;9.35;73.96;100806.97;5111677;27;20841;-68
2023/04/14 07:58:28;;;;;;;11.80;3.30;;;;;;;9.44;73.60;100810.22;5140558;27;20039;-69
2023/04/14 08:00:56;;;;;;;7.95;3.28;;;;;;;9.57;73.17;100812.50;5128692;27;20035;-68
2023/04/14 08:03:23;;;;;;;8.60;2.92;;;;;;;9.71;72.29;100804.28;5144184;27;20046;-68
2023/04/14 08:05:51;;;;;;;11.73;2.63;;;;;;;9.84;72.29;100813.53;5139939;27;20039;-68
2023/04/14 08:08:18;;;;;;;9.85;2.83;;;;;;;9.97;70.79;100806.16;5112507;27;20142;-68
2023/04/14 08:10:45;;;;;;;7.97;2.28;;;;;;;10.09;69.32;100805.81;5112687;27;20075;-68
2023/04/14 08:13:12;;;;;;;8.38;2.22;;;;;;;10.20;68.54;100794.09;5135359;27;20119;-68
2023/04/14 08:15:39;;;;;;;7.38;2.20;;;;;;;10.32;67.27;100800.78;5115132;27;20047;-68
2023/04/14 08:18:06;;;;;;;8.88;2.40;;;;;;;10.43;66.64;100800.50;5114161;27;20040;-69
2023/04/14 08:20:33;;;;;;;4.60;2.22;;;;;;;10.55;66.93;100806.25;5137356;27;20854;-68
2023/04/14 08:23:00;;;;;;;9.52;2.22;;;;;;;10.67;67.36;100798.88;5131255;27;20573;-68
2023/04/14 08:25:27;;;;;;;10.82;1.95;;;;;;;10.79;66.70;100806.41;5130389;27;20510;-68
2023/04/14 08:27:54;;;;;;;9.82;2.83;;;;;;;10.92;65.85;100801.59;5140842;27;20039;-69
2023/04/14 08:30:22;;;;;;;10.05;2.42;;;;;;;11.05;66.35;100801.19;5102428;27;20042;-68
2023/04/14 08:32:50;;;;;;;7.70;2.38;;;;;;;11.17;66.04;100793.72;5130148;27;20130;-69
2023/04/14 08:35:17;;;;;;;6.15;2.17;;;;;;;11.27;65.61;100799.56;5149101;27;20046;-69
2023/04/14 08:38:04;;;;;;;10.98;2.22;;;;;;;11.37;64.95;100793.97;5115376;27;20075;-69
2023/04/14 08:40:42;;;;;;;8.80;2.47;;;;;;;11.44;64.12;100799.00;5129720;27;20555;-69
2023/04/14 08:43:09;;;;;;;12.57;3.20;;;;;;;11.51;64.40;100789.06;5130693;27;20040;-69
2023/04/14 08:45:42;;;;;;;7.13;2.08;;;;;;;11.65;63.89;100788.56;5135630;27;20466;-69
2023/04/14 08:48:10;;;;;;;9.35;2.38;;;;;;;11.78;63.63;100789.00;5141307;27;20046;-68
2023/04/14 08:50:55;;;;;;;11.02;2.60;;;;;;;11.91;63.69;100784.97;5108774;27;20071;-69
2023/04/14 08:53:24;;;;;;;8.98;2.10;;;;;;;11.97;64.06;100781.25;5127980;27;20891;-69
2023/04/14 08:55:53;;;;;;;13.40;2.72;;;;;;;12.10;63.44;100793.13;5128616;27;20085;-68
2023/04/14 08:58:23;;;;;;;8.18;2.38;;;;;;;12.20;62.73;100793.66;5123657;27;20047;-68
2023/04/14 09:00:52;;;;;;;9.55;2.65;;;;;;;12.31;63.03;100795.03;5116568;27;20081;-68
2023/04/14 09:03:20;;;;;;;8.55;2.05;;;;;;;12.43;62.88;100794.53;5146645;27;20487;-68
2023/04/14 09:05:48;;;;;;;9.63;2.67;;;;;;;12.54;62.61;100789.69;5142435;27;20603;-69
2023/04/14 09:08:15;;;;;;;8.30;1.70;;;;;;;12.64;61.85;100789.34;5130371;27;20046;-69
2023/04/14 09:10:44;;;;;;;7.30;1.75;;;;;;;12.71;61.26;100788.19;5111750;27;20035;-68
2023/04/14 09:13:14;;;;;;;7.20;1.52;;;;;;;12.83;60.53;100786.81;5136030;27;20039;-68
2023/04/14 09:15:41;;;;;;;4.15;1.25;;;;;;;12.95;58.40;100782.81;5138333;27;20634;-68
2023/04/14 09:18:10;;;;;;;6.68;1.30;;;;;;;13.01;57.42;100787.84;5140462;27;20043;-68
2023/04/14 09:20:38;;;;;;;6.82;1.33;;;;;;;13.10;57.04;100789.25;5112024;27;20131;-69
2023/04/14 09:23:08;;;;;;;5.43;1.20;;;;;;;13.15;55.45;100784.63;5134325;27;20032;-68
2023/04/14 09:25:41;;;;;;;6.22;1.40;;;;;;;13.20;54.32;100780.00;5143641;27;20105;-68
2023/04/14 09:28:10;;;;;;;6.40;1.48;;;;;;;13.28;54.87;100780.53;5132903;27;20043;-69
2023/04/14 09:30:37;;;;;;;5.13;1.05;;;;;;;13.40;54.40;100773.00;5133464;27;20036;-68
2023/04/14 09:33:07;;;;;;;7.78;1.33;;;;;;;13.48;53.68;100774.41;5120197;27;20067;-68
2023/04/14 09:35:49;;;;;;;6.03;1.27;;;;;;;13.51;54.12;100768.13;5129585;27;20036;-68
2023/04/14 09:38:37;;;;;;;7.32;1.30;;;;;;;13.53;54.68;100768.06;5109969;27;20547;-68
2023/04/14 09:41:05;;;;;;;7.72;1.35;;;;;;;13.54;54.83;100765.34;5128659;27;20044;-69
2023/04/14 09:43:33;;;;;;;7.35;1.40;;;;;;;13.61;53.16;100760.63;5144217;27;20039;-68
2023/04/14 09:46:08;;;;;;;4.82;1.40;;;;;;;13.69;53.71;100762.94;5132636;27;20027;-68
2023/04/14 09:48:49;;;;;;;6.03;1.58;;;;;;;13.78;54.06;100762.53;5134760;27;20039;-68
2023/04/14 09:51:16;;;;;;;3.83;0.98;;;;;;;13.87;53.42;100767.41;5127316;27;20032;-68
2023/04/14 09:53:43;;;;;;;6.90;1.13;;;;;;;13.95;53.43;100757.31;5137496;27;20035;-68
2023/04/14 09:56:14;;;;;;;4.60;1.38;;;;;;;14.00;51.67;100762.41;5117148;27;20078;-68
2023/04/14 09:58:44;;;;;;;4.88;1.02;;;;;;;14.06;51.24;100764.78;5142548;27;20041;-70
2023/04/14 10:01:14;;;;;;;7.13;1.30;;;;;;;14.11;50.95;100757.47;5130358;27;20039;-69
2023/04/14 10:03:44;;;;;;;5.43;1.50;;;;;;;14.22;51.87;100766.72;5139353;27;20043;-69
2023/04/14 10:06:21;;;;;;;9.43;1.88;;;;;;;14.30;51.17;100761.91;5142016;27;20281;-68
2023/04/14 10:08:51;;;;;;;6.18;1.30;;;;;;;14.39;50.70;100757.97;5148615;27;20110;-68
2023/04/14 10:11:35;;;;;;;5.45;1.50;;;;;;;14.41;49.90;100748.13;5118583;27;20269;-68
2023/04/14 10:14:06;;;;;;;9.07;1.70;;;;;;;14.47;49.70;100752.28;5127419;27;20118;-68
2023/04/14 10:16:33;;;;;;;5.00;1.30;;;;;;;14.58;49.76;100750.84;5119394;27;20047;-68
2023/04/14 10:19:01;;;;;;;7.45;1.55;;;;;;;14.66;49.56;100742.50;5135744;27;20031;-70
2023/04/14 10:21:29;;;;;;;4.90;1.40;;;;;;;14.77;48.79;100743.78;5109864;27;20055;-70
2023/04/14 10:23:56;;;;;;;7.10;1.35;;;;;;;14.85;46.36;100731.03;5127763;27;20620;-69
2023/04/14 10:26:26;;;;;;;4.72;1.40;;;;;;;14.76;47.81;100735.00;5135915;27;20436;-70
2023/04/14 10:28:55;;;;;;;4.35;1.25;;;;;;;14.78;47.78;100727.81;5130993;27;20077;-70
2023/04/14 10:31:37;;;;;;;4.20;1.17;;;;;;;14.80;47.97;100720.66;5139350;27;20120;-70
2023/04/14 10:34:13;;;;;;;5.85;1.42;;;;;;;14.86;48.87;100720.31;5139473;27;20059;-70
2023/04/14 10:36:42;;;;;;;6.15;1.25;;;;;;;14.92;47.72;100719.16;5125579;27;20065;-69
2023/04/14 10:39:11;;;;;;;11.95;1.70;;;;;;;15.07;46.13;100723.69;5110764;27;20498;-70
2023/04/14 10:41:48;;;;;;;4.28;1.00;;;;;;;15.12;45.69;100712.81;5110171;27;20038;-69
2023/04/14 10:44:36;;;;;;;3.63;0.90;;;;;;;15.15;44.54;100710.03;5107854;27;20039;-69
2023/04/14 10:47:06;;;;;;;7.38;1.70;;;;;;;15.18;44.91;100699.25;5143899;27;20093;-69
2023/04/14 10:49:37;;;;;;;7.97;1.30;;;;;;;15.29;44.69;100703.13;5140187;27;20115;-70
2023/04/14 10:52:26;;;;;;;5.80;1.15;;;;;;;15.40;43.92;100703.44;5127802;27;20039;-67
2023/04/14 10:55:11;;;;;;;4.95;1.00;;;;;;;15.48;44.79;100706.53;5145983;27;20048;-70
2023/04/14 10:57:42;;;;;;;4.93;1.08;;;;;;;15.59;44.72;100710.44;5142511;27;20039;-69
2023/04/14 11:00:31;;;;;;;9.00;1.50;;;;;;;15.74;43.40;100700.78;5131450;27;20580;-69
2023/04/14 11:03:06;;;;;;;4.30;0.90;;;;;;;15.79;42.96;100688.94;5143842;27;20043;-69
2023/04/14 11:05:34;;;;;;;4.20;1.20;;;;;;;15.89;43.67;100691.97;5112218;27;20039;-69
2023/04/14 11:08:16;;;;;;;3.25;1.00;;;;;;;16.02;43.75;100691.31;5131145;27;20115;-69
2023/04/14 11:10:50;;;;;;;5.07;1.20;;;;;;;16.13;42.55;100684.44;5146829;27;20039;-68
2023/04/14 11:13:18;;;;;;;4.50;0.90;;;;;;;16.22;43.17;100682.22;5130368;27;20043;-69
2023/04/14 11:15:50;;;;;;;4.63;1.13;;;;;;;16.40;43.85;100677.63;5112207;27;20032;-69
2023/04/14 11:18:41;;;;;;;4.38;1.00;;;;;;;16.66;43.71;100680.59;5130543;27;20039;-69
2023/04/14 11:21:15;;;;;;;3.90;0.90;;;;;;;16.87;40.47;100681.13;5100869;27;20626;-69
2023/04/14 11:23:43;;;;;;;3.05;0.80;;;;;;;17.05;40.52;100682.72;5132683;27;20035;-69
2023/04/14 11:26:12;;;;;;;4.82;1.00;;;;;;;17.27;40.01;100681.44;5151448;27;20043;-69
2023/04/14 11:28:42;;;;;;;4.32;1.10;;;;;;;17.44;40.26;100682.22;5131425;27;20120;-69
2023/04/14 11:31:12;;;;;;;4.80;1.00;;;;;;;17.53;40.19;100665.66;5135496;27;20050;-69
2023/04/14 11:33:40;;;;;;;7.70;1.20;;;;;;;17.60;39.99;100672.31;5151538;27;20031;-69
2023/04/14 11:36:11;;;;;;;5.15;1.15;;;;;;;17.73;40.72;100674.22;5149815;27;20497;-70
2023/04/14 11:38:41;;;;;;;2.90;1.13;;;;;;;17.87;39.82;100674.16;5150438;27;20043;-69
2023/04/14 11:41:09;;;;;;;6.32;1.20;;;;;;;17.99;39.48;100673.41;5129929;27;20507;-70
2023/04/14 11:43:37;;;;;;;9.60;1.40;;;;;;;18.08;39.63;100668.44;5130873;27;20075;-69